Aviation Digital Data Service (ADDS)

Output produced by METARs form (1733 UTC 27 May 2017)
found at http://www.aviationweather.gov/adds/metars/
 
EPBY 271730Z 08004KT CAVOK 22/07 Q1023
TAF EPBY 271730Z 2718/2818 VRB03KT CAVOK 
     BECMG 2807/2809 18010KT
       
TAF EPCE 271700Z 2718/2803 VRB03KT CAVOK
       
TAF EPDA 271700Z 2718/2803 VRB02KT CAVOK 
     BECMG 2720/2722 15006KT
       
EPGD 271730Z 01005KT 340V050 CAVOK 21/10 Q1022
TAF EPGD 271730Z 2718/2818 26007KT CAVOK 
     BECMG 2810/2812 20011KT
       
EPKK 271730Z 01003KT 320V060 9999 FEW053 19/08 Q1023
TAF EPKK 271730Z 2718/2818 03005KT CAVOK 
     BECMG 2800/2802 4000 BR 
     BECMG 2804/2806 CAVOK
       
TAF EPKS 271700Z 2718/2803 VRB02KT CAVOK
       
EPKT 271730Z 01005KT CAVOK 19/08 Q1023
TAF EPKT 271730Z 2718/2818 03005KT CAVOK
       
EPLB 271730Z 34006KT CAVOK 19/08 Q1022
TAF EPLB 271730Z 2718/2803 35005KT CAVOK
       
EPLL 271730Z 01005KT 320V050 CAVOK 20/06 Q1023
TAF EPLL 271730Z 2718/2818 36007KT CAVOK
       
TAF EPMB 271700Z 2718/2803 VRB04KT CAVOK
       
TAF EPMM 271700Z 2718/2803 VRB03KT CAVOK
       
EPMO 271730Z 04004KT CAVOK 21/07 Q1023
TAF EPMO 271730Z 2718/2818 01008KT CAVOK 
     BECMG 2803/2806 26006KT
       
TAF EPOK 271700Z 2718/2803 VRB02KT CAVOK 
     BECMG 2720/2722 22006KT
       
EPPO 271730Z 11003KT CAVOK 23/08 Q1023
TAF EPPO 271730Z 2718/2818 VRB02KT CAVOK 
     BECMG 2806/2810 16010KT 
       
TAF EPPW 271700Z 2718/2803 VRB03KT CAVOK
       
EPRA 271730Z VRB03KT CAVOK 19/07 Q1023
TAF EPRA 271730Z 2718/2803 02004KT CAVOK 
     BECMG 2720/2722 VRB02KT
       
EPRZ 271730Z 01006KT CAVOK 18/07 Q1023
TAF EPRZ 271730Z 2718/2818 02007KT CAVOK
       
EPSC 271730Z 15005KT CAVOK 23/11 Q1022
TAF EPSC 271730Z 2718/2818 18007KT CAVOK
       
TAF EPSN 271700Z 2718/2803 VRB02KT CAVOK 
     BECMG 2719/2721 18006KT
       
EPSY 271730Z VRB02KT CAVOK 21/08 Q1023
TAF EPSY 271730Z 2718/2803 VRB02KT CAVOK
       
EPWA 271730Z 33006KT CAVOK 21/07 Q1023 NOSIG
TAF EPWA 271730Z 2718/2818 01008KT CAVOK 
     BECMG 2803/2806 27006KT
       
EPWR 271730Z 04005KT CAVOK 22/07 Q1023
TAF EPWR 271730Z 2718/2818 16005KT CAVOK
       
EPZG 271300Z VRB03KT CAVOK 24/07 Q1024
TAF EPZG 271130Z 2712/2721 09006KT CAVOK
       
EPZG 271300Z VRB03KT CAVOK 24/07 Q1024
TAF EPZG 271130Z 2712/2721 09006KT CAVOK
       
EPKK 271730Z 01003KT 320V060 9999 FEW053 19/08 Q1023
TAF EPKK 271730Z 2718/2818 03005KT CAVOK 
     BECMG 2800/2802 4000 BR 
     BECMG 2804/2806 CAVOK
       
EPSC 271730Z 15005KT CAVOK 23/11 Q1022
TAF EPSC 271730Z 2718/2818 18007KT CAVOK
       
EPRZ 271730Z 01006KT CAVOK 18/07 Q1023
TAF EPRZ 271730Z 2718/2818 02007KT CAVOK
       
TAF EPKS 271700Z 2718/2803 VRB02KT CAVOK
       
EPPO 271730Z 11003KT CAVOK 23/08 Q1023
TAF EPPO 271730Z 2718/2818 VRB02KT CAVOK 
     BECMG 2806/2810 16010KT 
       
EPLL 271730Z 01005KT 320V050 CAVOK 20/06 Q1023
TAF EPLL 271730Z 2718/2818 36007KT CAVOK
       
EPWA 271730Z 33006KT CAVOK 21/07 Q1023 NOSIG
TAF EPWA 271730Z 2718/2818 01008KT CAVOK 
     BECMG 2803/2806 27006KT
       
EPKT 271730Z 01005KT CAVOK 19/08 Q1023
TAF EPKT 271730Z 2718/2818 03005KT CAVOK
       
EPGD 271730Z 01005KT 340V050 CAVOK 21/10 Q1022
TAF EPGD 271730Z 2718/2818 26007KT CAVOK 
     BECMG 2810/2812 20011KT
       
EPWR 271730Z 04005KT CAVOK 22/07 Q1023
TAF EPWR 271730Z 2718/2818 16005KT CAVOK
       
TAF EPSN 271700Z 2718/2803 VRB02KT CAVOK 
     BECMG 2719/2721 18006KT
       
EPBY 271730Z 08004KT CAVOK 22/07 Q1023
TAF EPBY 271730Z 2718/2818 VRB03KT CAVOK 
     BECMG 2807/2809 18010KT
       
EPSY 271730Z VRB02KT CAVOK 21/08 Q1023
TAF EPSY 271730Z 2718/2803 VRB02KT CAVOK